createdAt,value
2017-09-17T00:00:52.327Z,10.70
2017-09-17T00:03:20.123Z,10.70
2017-09-17T00:05:48.655Z,10.80
2017-09-17T00:08:16.477Z,10.80
2017-09-17T00:10:44.233Z,10.90
2017-09-17T00:13:13.681Z,11.10
2017-09-17T00:15:41.496Z,11.10
2017-09-17T00:18:09.271Z,11.10
2017-09-17T00:20:37.092Z,11.10
2017-09-17T00:23:04.850Z,11.00
2017-09-17T00:25:32.630Z,11.00
2017-09-17T00:28:01.195Z,10.90
2017-09-17T00:30:28.962Z,10.90
2017-09-17T00:32:56.782Z,10.90
2017-09-17T00:35:24.558Z,11.00
2017-09-17T00:37:52.322Z,10.90
2017-09-17T00:40:20.122Z,10.90
2017-09-17T00:42:48.658Z,11.00
2017-09-17T00:45:16.481Z,10.90
2017-09-17T00:47:44.263Z,11.00
2017-09-17T00:50:12.884Z,11.00
2017-09-17T00:52:40.692Z,11.00
2017-09-17T00:55:08.520Z,11.00
2017-09-17T00:57:36.337Z,11.00
2017-09-17T01:00:04.139Z,11.00
2017-09-17T01:02:31.911Z,11.00
2017-09-17T01:04:59.726Z,11.10
2017-09-17T01:07:27.484Z,11.10
2017-09-17T01:09:55.318Z,11.10
2017-09-17T01:12:23.842Z,11.10
2017-09-17T01:14:51.607Z,11.10
2017-09-17T01:17:19.406Z,11.10
2017-09-17T01:19:47.970Z,11.10
2017-09-17T01:22:16.147Z,11.00
2017-09-17T01:24:43.932Z,11.10
2017-09-17T01:27:12.454Z,11.00
2017-09-17T01:29:40.248Z,11.00
2017-09-17T01:32:08.011Z,11.00
2017-09-17T01:34:35.870Z,10.90
2017-09-17T01:37:03.632Z,10.80
2017-09-17T01:39:31.410Z,10.80
2017-09-17T01:41:59.978Z,10.70
2017-09-17T01:44:27.762Z,10.60
2017-09-17T01:46:56.350Z,10.50
2017-09-17T01:49:24.128Z,10.50
2017-09-17T01:51:51.900Z,10.50
2017-09-17T01:54:19.700Z,10.40
2017-09-17T01:56:47.465Z,10.40
2017-09-17T01:59:15.282Z,10.40
2017-09-17T02:01:43.039Z,10.30
2017-09-17T02:04:10.809Z,10.40
2017-09-17T02:06:38.595Z,10.30
2017-09-17T02:09:06.363Z,10.30
2017-09-17T02:11:34.190Z,10.30
2017-09-17T02:14:01.966Z,10.30
2017-09-17T02:16:29.727Z,10.30
2017-09-17T02:18:57.525Z,10.30
2017-09-17T02:21:25.290Z,10.30
2017-09-17T02:23:53.894Z,10.20
2017-09-17T02:26:22.428Z,10.20
2017-09-17T02:28:50.186Z,10.20
2017-09-17T02:31:18.741Z,10.10
2017-09-17T02:33:47.030Z,10.10
2017-09-17T02:36:15.133Z,10.00
2017-09-17T02:38:42.897Z,10.00
2017-09-17T02:41:10.667Z,10.00
2017-09-17T02:43:38.459Z,10.00
2017-09-17T02:46:06.245Z,10.00
2017-09-17T02:48:34.059Z,9.90
2017-09-17T02:51:02.607Z,9.90
2017-09-17T02:53:30.362Z,9.90
2017-09-17T02:55:58.169Z,9.90
2017-09-17T02:58:26.705Z,10.00
2017-09-17T03:00:54.530Z,9.90
2017-09-17T03:03:22.294Z,10.00
2017-09-17T03:05:50.056Z,10.00
2017-09-17T03:08:17.852Z,10.00
2017-09-17T03:10:45.626Z,10.00
2017-09-17T03:13:13.452Z,10.00
2017-09-17T03:15:41.218Z,10.00
2017-09-17T03:18:08.983Z,10.00
2017-09-17T03:20:36.857Z,10.00
2017-09-17T03:23:04.619Z,10.00
2017-09-17T03:25:32.468Z,10.00
2017-09-17T03:28:00.998Z,9.90
2017-09-17T03:30:28.760Z,9.90
2017-09-17T03:32:56.567Z,9.90
2017-09-17T03:35:24.339Z,9.80
2017-09-17T03:37:52.149Z,9.80
2017-09-17T03:40:19.940Z,9.70
2017-09-17T03:42:47.705Z,9.60
2017-09-17T03:45:15.580Z,9.50
2017-09-17T03:47:43.344Z,9.40
2017-09-17T03:50:11.163Z,9.40
2017-09-17T03:52:38.933Z,9.30
2017-09-17T03:55:07.474Z,9.30
2017-09-17T03:57:35.264Z,9.20
2017-09-17T04:00:03.030Z,9.20
2017-09-17T04:02:31.650Z,9.10
2017-09-17T04:04:59.422Z,9.10
2017-09-17T04:07:27.193Z,9.10
2017-09-17T04:09:54.988Z,9.10
2017-09-17T04:12:22.753Z,9.10
2017-09-17T04:14:50.575Z,9.00
2017-09-17T04:17:18.366Z,9.00
2017-09-17T04:19:46.128Z,9.00
2017-09-17T04:22:13.927Z,8.90
2017-09-17T04:24:41.705Z,8.80
2017-09-17T04:27:09.523Z,8.90
2017-09-17T04:29:37.276Z,8.90
2017-09-17T04:32:05.040Z,8.90
2017-09-17T04:34:32.818Z,8.80
2017-09-17T04:37:01.347Z,8.70
2017-09-17T04:39:29.166Z,8.70
2017-09-17T04:41:57.696Z,8.70
2017-09-17T04:44:25.455Z,8.70
2017-09-17T04:46:53.556Z,8.80
2017-09-17T04:49:21.322Z,8.80
2017-09-17T04:51:49.155Z,8.80
2017-09-17T04:54:16.923Z,8.70
2017-09-17T04:56:44.681Z,8.70
2017-09-17T04:59:12.494Z,8.70
2017-09-17T05:01:41.026Z,8.80
2017-09-17T05:04:08.844Z,8.80
2017-09-17T05:06:36.624Z,8.80
2017-09-17T05:09:04.401Z,8.90
2017-09-17T05:11:32.197Z,9.00
2017-09-17T05:13:59.968Z,9.10
2017-09-17T05:16:27.792Z,9.10
2017-09-17T05:18:55.541Z,9.00
2017-09-17T05:21:23.301Z,9.00
2017-09-17T05:23:51.106Z,9.10
2017-09-17T05:26:18.862Z,9.10
2017-09-17T05:28:46.682Z,9.20
2017-09-17T05:31:14.439Z,9.30
2017-09-17T05:33:42.211Z,9.40
2017-09-17T05:36:10.001Z,9.50
2017-09-17T05:38:37.768Z,9.60
2017-09-17T05:41:05.583Z,9.60
2017-09-17T05:43:33.333Z,9.60
2017-09-17T05:46:01.864Z,9.70
2017-09-17T05:48:29.654Z,9.70
2017-09-17T05:50:57.433Z,9.70
2017-09-17T05:53:26.020Z,9.70
2017-09-17T05:55:54.559Z,9.70
2017-09-17T05:58:22.326Z,9.70
2017-09-17T06:00:50.115Z,9.80
2017-09-17T06:03:18.654Z,10.20
2017-09-17T06:05:46.499Z,10.20
2017-09-17T06:08:14.255Z,10.40
2017-09-17T06:10:42.032Z,10.60
2017-09-17T06:13:09.838Z,10.90
2017-09-17T06:15:38.382Z,12.60
2017-09-17T06:18:06.199Z,12.60
2017-09-17T06:20:33.978Z,14.50
2017-09-17T06:23:01.742Z,16.30
2017-09-17T06:25:29.546Z,18.20
2017-09-17T06:27:57.355Z,19.20
2017-09-17T06:30:25.214Z,19.50
2017-09-17T06:32:52.983Z,19.10
2017-09-17T06:35:20.743Z,18.80
2017-09-17T06:37:48.533Z,17.90
2017-09-17T06:40:16.294Z,17.10
2017-09-17T06:42:44.106Z,18.70
2017-09-17T06:45:12.623Z,22.40
2017-09-17T06:47:40.390Z,22.30
2017-09-17T06:50:08.198Z,22.20
2017-09-17T06:52:35.953Z,21.20
2017-09-17T06:55:03.829Z,21.90
2017-09-17T06:57:31.611Z,23.40
2017-09-17T06:59:59.387Z,23.50
2017-09-17T07:02:27.210Z,23.80
2017-09-17T07:04:55.750Z,26.30
2017-09-17T07:07:23.650Z,26.30
2017-09-17T07:09:52.529Z,28.00
2017-09-17T07:12:21.751Z,27.80
2017-09-17T07:14:49.607Z,27.80
2017-09-17T07:17:17.432Z,28.50
2017-09-17T07:19:46.249Z,29.40
2017-09-17T07:22:14.139Z,28.70
2017-09-17T07:24:41.925Z,29.30
2017-09-17T07:27:09.718Z,28.90
2017-09-17T07:29:37.488Z,29.60
2017-09-17T07:32:05.324Z,29.90
2017-09-17T07:34:33.220Z,30.50
2017-09-17T07:37:01.947Z,30.80
2017-09-17T07:39:30.085Z,30.70
2017-09-17T07:41:58.673Z,31.70
2017-09-17T07:44:27.392Z,29.70
2017-09-17T07:46:55.209Z,29.60
2017-09-17T07:49:22.979Z,28.00
2017-09-17T07:51:51.544Z,22.80
2017-09-17T07:54:19.331Z,22.70
2017-09-17T07:56:47.950Z,20.90
2017-09-17T07:59:15.714Z,20.90
2017-09-17T08:01:43.473Z,20.70
2017-09-17T08:04:11.273Z,20.90
2017-09-17T08:06:39.041Z,21.90
2017-09-17T08:09:06.883Z,23.30
2017-09-17T08:11:34.645Z,23.40
2017-09-17T08:14:02.416Z,22.90
2017-09-17T08:16:30.207Z,23.00
2017-09-17T08:18:58.737Z,22.20
2017-09-17T08:21:26.568Z,22.10
2017-09-17T08:23:54.327Z,22.20
2017-09-17T08:26:22.105Z,22.30
2017-09-17T08:28:49.898Z,22.30
2017-09-17T08:31:17.670Z,21.70
2017-09-17T08:33:45.502Z,21.40
2017-09-17T08:36:13.260Z,22.20
2017-09-17T08:38:41.039Z,22.40
2017-09-17T08:41:08.841Z,22.20
2017-09-17T08:43:37.361Z,21.60
2017-09-17T08:46:05.357Z,21.50
2017-09-17T08:48:33.139Z,21.50
2017-09-17T08:51:00.893Z,21.70
2017-09-17T08:53:28.692Z,21.80
2017-09-17T08:55:56.466Z,21.30
2017-09-17T08:58:24.313Z,20.10
2017-09-17T09:00:52.121Z,19.70
2017-09-17T09:03:20.896Z,18.80
2017-09-17T09:05:48.714Z,18.30
2017-09-17T09:08:17.266Z,17.40
2017-09-17T09:10:45.099Z,17.40
2017-09-17T09:13:12.862Z,17.80
2017-09-17T09:15:40.634Z,18.20
2017-09-17T09:18:08.429Z,18.50
2017-09-17T09:20:36.223Z,18.70
2017-09-17T09:23:04.063Z,18.80
2017-09-17T09:25:32.611Z,18.70
2017-09-17T09:28:00.379Z,18.60
2017-09-17T09:30:28.169Z,18.80
2017-09-17T09:32:56.699Z,19.50
2017-09-17T09:35:24.563Z,19.50
2017-09-17T09:37:52.358Z,19.50
2017-09-17T09:40:20.122Z,19.20
2017-09-17T09:42:48.071Z,19.00
2017-09-17T09:45:15.891Z,18.50
2017-09-17T09:47:43.858Z,18.30
2017-09-17T09:50:12.155Z,18.30
2017-09-17T09:52:40.133Z,18.80
2017-09-17T09:55:08.184Z,19.30
2017-09-17T09:57:36.089Z,19.50
2017-09-17T10:00:04.107Z,19.50
2017-09-17T10:02:31.889Z,19.80
2017-09-17T10:04:59.763Z,19.70
2017-09-17T10:07:27.544Z,19.50
2017-09-17T10:09:55.380Z,19.50
2017-09-17T10:12:23.449Z,19.20
2017-09-17T10:14:51.259Z,19.10
2017-09-17T10:17:19.830Z,18.90
2017-09-17T10:19:48.593Z,18.90
2017-09-17T10:22:16.747Z,18.60
2017-09-17T10:24:44.559Z,18.30
2017-09-17T10:27:13.094Z,17.90
2017-09-17T10:29:40.904Z,17.90
2017-09-17T10:32:09.492Z,17.60
2017-09-17T10:34:38.608Z,17.70
2017-09-17T10:37:06.404Z,17.70
2017-09-17T10:39:34.226Z,17.80
2017-09-17T10:42:02.082Z,17.50
2017-09-17T10:44:30.006Z,17.60
2017-09-17T10:46:57.973Z,17.70
2017-09-17T10:49:25.845Z,17.90
2017-09-17T10:51:53.698Z,17.90
2017-09-17T10:54:21.494Z,17.80
2017-09-17T10:56:49.426Z,17.70
2017-09-17T10:59:17.244Z,17.60
2017-09-17T11:01:45.021Z,17.60
2017-09-17T11:04:12.804Z,17.70
2017-09-17T11:06:40.596Z,17.50
2017-09-17T11:09:09.158Z,17.50
2017-09-17T11:11:37.000Z,17.50
2017-09-17T11:14:04.794Z,17.50
2017-09-17T11:16:33.325Z,18.00
2017-09-17T11:19:01.124Z,18.00
2017-09-17T11:21:28.927Z,17.90
2017-09-17T11:23:56.850Z,17.90
2017-09-17T11:26:24.655Z,17.90
2017-09-17T11:28:52.440Z,17.90
2017-09-17T11:31:20.275Z,17.80
2017-09-17T11:33:48.054Z,17.50
2017-09-17T11:36:15.877Z,17.40
2017-09-17T11:38:44.433Z,17.60
2017-09-17T11:41:12.207Z,17.60
2017-09-17T11:43:39.997Z,17.70
2017-09-17T11:46:08.530Z,17.20
2017-09-17T11:48:36.353Z,17.20
2017-09-17T11:51:04.126Z,17.30
2017-09-17T11:53:31.912Z,17.30
2017-09-17T11:55:59.699Z,17.10
2017-09-17T11:58:27.461Z,17.20
2017-09-17T12:00:55.277Z,17.20
2017-09-17T12:03:23.058Z,17.10
2017-09-17T12:05:50.830Z,16.90
2017-09-17T12:08:18.634Z,16.80
2017-09-17T12:10:47.188Z,16.70
2017-09-17T12:13:15.000Z,16.70
2017-09-17T12:15:42.770Z,16.60
2017-09-17T12:18:10.517Z,16.50
2017-09-17T12:20:38.314Z,16.50
2017-09-17T12:23:06.087Z,16.60
2017-09-17T12:25:33.899Z,16.70
2017-09-17T12:28:02.415Z,16.80
2017-09-17T12:30:30.174Z,16.70
2017-09-17T12:32:57.960Z,16.80
2017-09-17T12:35:25.712Z,16.80
2017-09-17T12:37:53.518Z,16.70
2017-09-17T12:40:22.057Z,16.60
2017-09-17T12:42:49.828Z,16.60
2017-09-17T12:45:17.633Z,16.60
2017-09-17T12:47:45.400Z,16.80
2017-09-17T12:50:13.228Z,16.70
2017-09-17T12:52:40.997Z,16.80
2017-09-17T12:55:09.556Z,16.40
2017-09-17T12:57:37.345Z,16.40
2017-09-17T13:00:05.884Z,16.30
2017-09-17T13:02:33.715Z,16.30
2017-09-17T13:05:01.471Z,16.10
2017-09-17T13:07:29.252Z,16.00
2017-09-17T13:09:57.046Z,16.00
2017-09-17T13:12:24.811Z,16.00
2017-09-17T13:14:52.659Z,16.00
2017-09-17T13:17:20.436Z,16.00
2017-09-17T13:19:48.226Z,16.10
2017-09-17T13:22:16.781Z,16.40
2017-09-17T13:24:44.534Z,16.30
2017-09-17T13:27:12.345Z,16.40
2017-09-17T13:29:40.108Z,16.40
2017-09-17T13:32:07.860Z,16.30
2017-09-17T13:34:36.427Z,16.20
2017-09-17T13:37:04.960Z,16.20
2017-09-17T13:39:32.794Z,16.20
2017-09-17T13:42:00.578Z,16.20
2017-09-17T13:44:28.374Z,16.10
2017-09-17T13:46:56.190Z,15.90
2017-09-17T13:49:24.744Z,16.00
2017-09-17T13:51:53.354Z,15.90
2017-09-17T13:54:21.132Z,15.90
2017-09-17T13:56:48.911Z,15.90
2017-09-17T13:59:17.479Z,15.90
2017-09-17T14:01:55.184Z,16.00
2017-09-17T14:04:23.767Z,15.90
2017-09-17T14:20:15.053Z,15.90
2017-09-17T14:22:42.841Z,15.90
2017-09-17T14:25:11.533Z,15.90
2017-09-17T14:27:40.069Z,15.90
2017-09-17T14:30:07.861Z,15.90
2017-09-17T14:32:35.648Z,15.80
2017-09-17T14:35:03.430Z,15.80
2017-09-17T14:37:31.269Z,15.80
2017-09-17T14:39:59.801Z,15.70
2017-09-17T14:42:27.562Z,15.70
2017-09-17T14:44:55.354Z,15.70
2017-09-17T14:47:23.147Z,15.60
2017-09-17T14:49:50.973Z,15.60
2017-09-17T14:52:18.738Z,15.60
2017-09-17T14:54:46.502Z,15.60
2017-09-17T14:57:14.295Z,15.60
2017-09-17T14:59:42.059Z,15.60
2017-09-17T15:02:09.898Z,15.60
2017-09-17T15:04:38.413Z,15.50
2017-09-17T15:07:06.179Z,15.50
2017-09-17T15:09:34.755Z,15.50
2017-09-17T15:12:02.518Z,15.40
2017-09-17T15:14:30.332Z,15.50
2017-09-17T15:16:58.103Z,15.40
2017-09-17T15:19:26.656Z,15.40
2017-09-17T15:21:54.459Z,15.40
2017-09-17T15:24:22.233Z,15.30
2017-09-17T15:26:50.049Z,15.30
2017-09-17T15:29:17.842Z,15.30
2017-09-17T15:31:46.368Z,15.30
2017-09-17T15:34:14.158Z,15.30
2017-09-17T15:36:41.916Z,15.30
2017-09-17T15:39:09.753Z,15.30
2017-09-17T15:41:37.527Z,15.20
2017-09-17T15:44:05.277Z,15.10
2017-09-17T15:46:33.071Z,15.00
2017-09-17T15:49:00.839Z,15.00
2017-09-17T15:51:29.434Z,14.80
2017-09-17T15:53:57.961Z,14.80
2017-09-17T15:56:25.738Z,14.80
2017-09-17T15:58:53.535Z,14.80
2017-09-17T16:01:22.077Z,14.70
2017-09-17T16:03:49.913Z,14.70
2017-09-17T16:06:17.664Z,14.60
2017-09-17T16:08:45.433Z,14.60
2017-09-17T16:11:13.359Z,14.50
2017-09-17T16:13:41.160Z,14.50
2017-09-17T16:16:09.005Z,14.50
2017-09-17T16:18:36.778Z,14.50
2017-09-17T16:21:04.764Z,14.50
2017-09-17T16:23:32.586Z,14.40
2017-09-17T16:26:01.132Z,14.30
2017-09-17T16:28:29.803Z,14.30
2017-09-17T16:30:57.572Z,14.20
2017-09-17T16:33:25.496Z,14.20
2017-09-17T16:35:53.354Z,14.20
2017-09-17T16:38:21.156Z,14.20
2017-09-17T16:40:49.021Z,14.30
2017-09-17T16:43:18.039Z,14.30
2017-09-17T16:45:45.818Z,14.20
2017-09-17T16:48:14.576Z,14.20
2017-09-17T16:50:42.435Z,14.10
2017-09-17T16:53:10.275Z,14.10
2017-09-17T16:55:38.117Z,13.90
2017-09-17T16:58:05.998Z,13.80
2017-09-17T17:00:34.027Z,13.70
2017-09-17T17:03:02.576Z,13.50
2017-09-17T17:05:30.419Z,13.50
2017-09-17T17:07:58.723Z,13.50
2017-09-17T17:10:26.497Z,13.50
2017-09-17T17:12:55.082Z,13.40
2017-09-17T17:15:23.630Z,13.40
2017-09-17T17:17:51.513Z,13.30
2017-09-17T17:20:19.286Z,13.40
2017-09-17T17:22:47.818Z,13.30
2017-09-17T17:25:15.633Z,13.30
2017-09-17T17:27:44.165Z,13.30
2017-09-17T17:30:12.010Z,13.30
2017-09-17T17:32:39.790Z,13.30
2017-09-17T17:35:07.557Z,13.20
2017-09-17T17:37:35.347Z,13.20
2017-09-17T17:40:03.900Z,13.10
2017-09-17T17:42:31.725Z,13.10
2017-09-17T17:44:59.520Z,13.10
2017-09-17T17:47:27.308Z,13.00
2017-09-17T17:49:55.127Z,13.00
2017-09-17T17:52:22.977Z,13.00
2017-09-17T17:54:50.859Z,13.10
2017-09-17T17:57:18.634Z,13.00
2017-09-17T17:59:46.400Z,13.00
2017-09-17T18:02:14.198Z,13.00
2017-09-17T18:04:42.742Z,13.10
2017-09-17T18:07:11.614Z,13.10
2017-09-17T18:09:39.386Z,13.10
2017-09-17T18:12:07.168Z,13.10
2017-09-17T18:14:34.976Z,13.20
2017-09-17T18:17:02.737Z,13.20
2017-09-17T18:19:30.587Z,13.10
2017-09-17T18:21:58.363Z,13.00
2017-09-17T18:24:26.133Z,13.00
2017-09-17T18:26:53.938Z,13.00
2017-09-17T18:29:21.757Z,12.90
2017-09-17T18:31:50.347Z,12.90
2017-09-17T18:34:18.765Z,12.90
2017-09-17T18:36:46.548Z,12.90
2017-09-17T18:39:15.139Z,12.90
2017-09-17T18:41:43.703Z,12.90
2017-09-17T18:44:12.354Z,12.90
2017-09-17T18:46:40.128Z,12.90
2017-09-17T18:49:07.918Z,12.80
2017-09-17T18:51:36.492Z,12.80
2017-09-17T18:54:05.032Z,12.80
2017-09-17T18:56:32.869Z,12.70
2017-09-17T18:59:00.643Z,12.80
2017-09-17T19:01:28.442Z,12.70
2017-09-17T19:03:56.261Z,12.70
2017-09-17T19:06:24.040Z,12.80
2017-09-17T19:08:51.894Z,12.70
2017-09-17T19:11:19.837Z,12.70
2017-09-17T19:13:47.616Z,12.60
2017-09-17T19:16:15.463Z,12.50
2017-09-17T19:18:43.341Z,12.50
2017-09-17T19:21:11.195Z,12.40
2017-09-17T19:23:39.061Z,12.40
2017-09-17T19:26:07.208Z,12.30
2017-09-17T19:28:35.793Z,12.30
2017-09-17T19:31:04.337Z,12.20
2017-09-17T19:33:32.233Z,12.20
2017-09-17T19:36:00.835Z,12.20
2017-09-17T19:38:28.628Z,12.10
2017-09-17T19:40:56.516Z,12.20
2017-09-17T19:43:24.334Z,12.20
2017-09-17T19:45:52.220Z,12.20
2017-09-17T19:48:20.007Z,12.10
2017-09-17T19:50:47.863Z,12.10
2017-09-17T19:53:15.688Z,12.10
2017-09-17T19:55:43.474Z,12.10
2017-09-17T19:58:11.329Z,12.00
2017-09-17T20:00:39.121Z,12.00
2017-09-17T20:03:06.893Z,12.00
2017-09-17T20:05:34.735Z,11.90
2017-09-17T20:08:02.719Z,11.90
2017-09-17T20:10:30.615Z,11.90
2017-09-17T20:12:59.188Z,11.80
2017-09-17T20:15:27.711Z,11.80
2017-09-17T20:17:55.519Z,11.80
2017-09-17T20:20:24.055Z,11.90
2017-09-17T20:22:51.927Z,11.80
2017-09-17T20:25:19.721Z,11.80
2017-09-17T20:27:47.534Z,11.80
2017-09-17T20:30:15.387Z,11.70
2017-09-17T20:32:43.217Z,11.70
2017-09-17T20:35:11.890Z,11.60
2017-09-17T20:37:39.674Z,11.60
2017-09-17T20:40:07.510Z,11.60
2017-09-17T20:42:36.121Z,11.60
2017-09-17T20:45:03.890Z,11.60
2017-09-17T20:47:31.743Z,11.60
2017-09-17T20:50:00.346Z,11.60
2017-09-17T20:52:28.138Z,11.60
2017-09-17T20:54:55.953Z,11.50
2017-09-17T20:57:23.727Z,11.50
2017-09-17T20:59:51.548Z,11.60
2017-09-17T21:02:19.312Z,11.60
2017-09-17T21:04:47.137Z,11.60
2017-09-17T21:07:14.930Z,11.60
2017-09-17T21:09:42.690Z,11.50
2017-09-17T21:12:10.515Z,11.50
2017-09-17T21:14:38.299Z,11.60
2017-09-17T21:17:06.056Z,11.60
2017-09-17T21:19:33.898Z,11.70
2017-09-17T21:22:01.675Z,11.70
2017-09-17T21:24:30.357Z,11.70
2017-09-17T21:26:58.125Z,11.70
2017-09-17T21:29:25.907Z,11.70
2017-09-17T21:31:53.704Z,11.70
2017-09-17T21:34:21.479Z,11.70
2017-09-17T21:36:49.354Z,11.60
2017-09-17T21:39:17.179Z,11.50
2017-09-17T21:41:44.986Z,11.60
2017-09-17T21:44:12.797Z,11.60
2017-09-17T21:46:40.581Z,11.50
2017-09-17T21:49:09.169Z,11.50
2017-09-17T21:51:36.925Z,11.40
2017-09-17T21:54:05.460Z,11.40
2017-09-17T21:56:33.263Z,11.40
2017-09-17T21:59:01.028Z,11.40
2017-09-17T22:01:28.861Z,11.40
2017-09-17T22:03:56.621Z,11.30
2017-09-17T22:06:24.381Z,11.20
2017-09-17T22:08:52.162Z,11.20
2017-09-17T22:11:20.699Z,11.20
2017-09-17T22:13:48.530Z,11.20
2017-09-17T22:16:16.293Z,11.20
2017-09-17T22:18:44.060Z,11.30
2017-09-17T22:21:11.855Z,11.30
2017-09-17T22:23:39.624Z,11.20
2017-09-17T22:26:07.440Z,11.20
2017-09-17T22:28:35.209Z,11.20
2017-09-17T22:31:02.975Z,11.10
2017-09-17T22:33:30.765Z,11.20
2017-09-17T22:35:58.522Z,11.10
2017-09-17T22:38:26.337Z,11.20
2017-09-17T22:40:54.873Z,11.20
2017-09-17T22:43:22.651Z,11.10
2017-09-17T22:45:50.452Z,11.20
2017-09-17T22:48:18.214Z,11.20
2017-09-17T22:50:46.801Z,11.20
2017-09-17T22:53:14.564Z,11.20
2017-09-17T22:55:42.327Z,11.20
2017-09-17T22:58:10.132Z,11.20
2017-09-17T23:00:37.902Z,11.20
2017-09-17T23:03:05.733Z,11.10
2017-09-17T23:05:33.497Z,11.10
2017-09-17T23:08:01.262Z,11.20
2017-09-17T23:10:29.071Z,11.20
2017-09-17T23:12:56.862Z,11.10
2017-09-17T23:15:24.855Z,11.10
2017-09-17T23:17:52.615Z,11.20
2017-09-17T23:20:20.398Z,11.10
2017-09-17T23:22:48.179Z,11.10
2017-09-17T23:25:16.717Z,11.10
2017-09-17T23:27:44.547Z,11.00
2017-09-17T23:30:12.329Z,11.10
2017-09-17T23:32:40.092Z,11.00
2017-09-17T23:35:07.881Z,11.00
2017-09-17T23:37:35.653Z,11.00
2017-09-17T23:40:03.476Z,11.00
2017-09-17T23:42:31.249Z,10.90
2017-09-17T23:44:59.011Z,10.80
2017-09-17T23:47:26.802Z,10.80
2017-09-17T23:49:54.575Z,10.80
2017-09-17T23:52:23.158Z,10.70
2017-09-17T23:54:51.695Z,10.60
2017-09-17T23:57:19.451Z,10.60
2017-09-17T23:59:47.267Z,10.60
